Adak Island, Alaska
Current Conditions -  °F | °C
As of 6:16 AM on Thursday 18 Dec 2014 (Local Time) from PADK Reporting Station
Overcast Overcast  
Wind Chill: 23°   Ceiling: 600
Heat Index: 34°   Visibility: 2.5mi
Dew Point: 28°   Wind: 18mph
Humidity: 81%   Direction: 90°E
Pressure: 29.04"   Gusts: NA
Location:  51.88°N, 176.65°W
Report Text: PADK 181516Z AUTO 09016KT 2 1/2SM BKN006 OVC012 01/M02 A2904 RMK AO1
Loading
Personal Weather Stations






























Interactive Weather Map New forecast layout! Learn more

10-Day Weather Forecast

Advertisements
Track Severe Weather on mobile